Time;durP1;ratioP1;P1;durP2;ratioP2;P2;SDS_P1;SDS_P2;PMS_P1;PMS_P2;Temp;Humidity;BMP_temperature;BMP_pressure;BME280_temperature;BME280_humidity;BME280_pressure;Samples;Min_cycle;Max_cycle;Signal;HPM_P1;HPM_P2
2024/03/08 00:00:27;;;;;;;28.02;15.85;;;5.30;99.90;;;;;;5068619;28;20103;-74
2024/03/08 00:02:53;;;;;;;29.55;16.73;;;5.30;99.90;;;;;;5068325;28;20047;-76
2024/03/08 00:05:19;;;;;;;27.40;16.52;;;5.30;99.90;;;;;;5068604;28;20085;-76
2024/03/08 00:07:46;;;;;;;25.92;16.05;;;5.30;99.90;;;;;;5067784;28;20024;-75
2024/03/08 00:10:12;;;;;;;25.13;16.33;;;5.30;99.90;;;;;;5068760;28;20052;-75
2024/03/08 00:12:41;;;;;;;26.83;16.52;;;5.20;99.90;;;;;;5067722;28;20032;-75
2024/03/08 00:15:13;;;;;;;27.73;16.45;;;5.20;99.90;;;;;;5068465;28;20046;-75
2024/03/08 00:17:40;;;;;;;27.85;17.23;;;5.20;99.90;;;;;;5067962;28;20020;-75
2024/03/08 00:20:08;;;;;;;27.27;15.73;;;5.20;99.90;;;;;;5068794;28;20009;-75
2024/03/08 00:22:37;;;;;;;28.58;16.52;;;5.20;99.90;;;;;;5067817;28;20477;-75
2024/03/08 00:25:05;;;;;;;24.55;15.65;;;5.10;99.90;;;;;;5068109;28;20103;-75
2024/03/08 00:27:30;;;;;;;28.88;16.88;;;5.10;99.90;;;;;;5066799;28;20139;-76
2024/03/08 00:29:57;;;;;;;25.48;15.93;;;5.10;99.90;;;;;;5068420;28;20545;-75
2024/03/08 00:32:27;;;;;;;24.92;15.32;;;5.10;99.90;;;;;;5067669;28;20435;-76
2024/03/08 00:34:56;;;;;;;24.15;14.93;;;5.10;99.90;;;;;;5066479;28;20017;-75
2024/03/08 00:37:21;;;;;;;27.50;16.13;;;5.00;99.90;;;;;;5067341;28;20523;-74
2024/03/08 00:39:49;;;;;;;26.73;16.02;;;5.00;99.90;;;;;;5067579;28;20020;-75
2024/03/08 00:42:15;;;;;;;25.23;16.00;;;5.00;99.90;;;;;;5067515;28;20028;-74
2024/03/08 00:44:41;;;;;;;25.30;15.57;;;5.00;99.90;;;;;;5067980;28;20375;-75
2024/03/08 00:47:07;;;;;;;25.23;15.77;;;5.00;99.90;;;;;;5067652;28;20020;-74
2024/03/08 00:49:32;;;;;;;27.95;15.70;;;5.00;99.90;;;;;;5069059;28;20118;-75
2024/03/08 00:51:58;;;;;;;27.00;16.65;;;4.90;99.90;;;;;;5087566;28;20073;-75
2024/03/08 00:54:24;;;;;;;23.50;14.80;;;4.90;99.90;;;;;;5087924;28;20035;-74
2024/03/08 00:56:50;;;;;;;23.10;14.95;;;4.90;99.90;;;;;;5088046;28;20501;-75
2024/03/08 00:59:16;;;;;;;25.65;16.27;;;4.90;99.90;;;;;;5088395;28;20016;-74
2024/03/08 01:01:42;;;;;;;28.73;16.75;;;4.90;99.90;;;;;;5070232;28;20131;-75
2024/03/08 01:04:07;;;;;;;25.65;14.73;;;4.90;99.90;;;;;;5069155;28;20733;-75
2024/03/08 01:06:34;;;;;;;23.55;15.50;;;4.90;99.90;;;;;;5087678;28;20027;-75
2024/03/08 01:08:59;;;;;;;27.20;16.92;;;4.80;99.90;;;;;;5087423;28;20032;-75
2024/03/08 01:11:25;;;;;;;24.17;15.50;;;4.80;99.90;;;;;;5089872;28;20036;-76
2024/03/08 01:13:51;;;;;;;25.83;15.70;;;4.80;99.90;;;;;;5088533;28;20482;-75
2024/03/08 01:16:17;;;;;;;26.48;16.70;;;4.80;99.90;;;;;;5069271;28;20497;-75
2024/03/08 01:18:43;;;;;;;25.98;15.88;;;4.80;99.90;;;;;;5087264;28;20381;-75
2024/03/08 01:21:09;;;;;;;23.90;15.90;;;4.70;99.90;;;;;;5088382;28;20026;-75
2024/03/08 01:23:35;;;;;;;22.55;15.45;;;4.70;99.90;;;;;;5087189;28;20455;-75
2024/03/08 01:26:02;;;;;;;27.73;16.40;;;4.70;99.90;;;;;;5087184;28;20020;-75
2024/03/08 01:28:28;;;;;;;25.08;15.57;;;4.60;99.90;;;;;;5086718;28;20039;-75
2024/03/08 01:30:56;;;;;;;25.70;15.52;;;4.60;99.90;;;;;;5086776;28;20536;-75
2024/03/08 01:33:26;;;;;;;26.27;15.75;;;4.60;99.90;;;;;;5086931;28;20020;-75
2024/03/08 01:35:53;;;;;;;23.58;15.80;;;4.60;99.90;;;;;;5087106;28;20031;-75
2024/03/08 01:38:22;;;;;;;26.45;16.13;;;4.60;99.90;;;;;;5086201;28;20679;-75
2024/03/08 01:40:48;;;;;;;25.33;15.95;;;4.50;99.90;;;;;;5086818;28;20028;-76
2024/03/08 01:43:21;;;;;;;23.05;16.52;;;4.50;99.90;;;;;;5086954;28;20066;-75
2024/03/08 01:45:51;;;;;;;26.88;16.85;;;4.50;99.90;;;;;;5068474;28;20016;-75
2024/03/08 01:48:18;;;;;;;24.37;16.17;;;4.50;99.90;;;;;;5068214;28;20024;-74
2024/03/08 01:50:45;;;;;;;25.48;16.73;;;4.50;99.90;;;;;;5072251;28;20114;-75
2024/03/08 01:53:15;;;;;;;22.60;16.08;;;4.40;99.90;;;;;;5086238;28;20028;-75
2024/03/08 01:55:42;;;;;;;27.02;17.48;;;4.40;99.90;;;;;;5086934;28;20012;-76
2024/03/08 01:58:09;;;;;;;24.63;15.75;;;4.40;99.90;;;;;;5086766;28;20020;-75
2024/03/08 02:00:36;;;;;;;31.48;18.13;;;4.40;99.90;;;;;;5086405;28;20515;-76
2024/03/08 02:03:02;;;;;;;27.80;17.17;;;4.40;99.90;;;;;;5086172;28;20087;-74
2024/03/08 02:05:28;;;;;;;25.00;16.08;;;4.30;99.90;;;;;;5086751;28;20107;-75
2024/03/08 02:07:54;;;;;;;26.65;17.50;;;4.30;99.90;;;;;;5067556;28;20532;-75
2024/03/08 02:10:22;;;;;;;26.08;17.27;;;4.30;99.90;;;;;;5086714;28;20050;-75
2024/03/08 02:12:48;;;;;;;23.85;16.10;;;4.40;99.90;;;;;;5067769;28;20063;-75
2024/03/08 02:15:14;;;;;;;26.20;17.02;;;4.30;99.90;;;;;;5068482;28;20070;-75
2024/03/08 02:17:41;;;;;;;26.13;17.05;;;4.30;99.90;;;;;;5085668;28;20103;-75
2024/03/08 02:20:09;;;;;;;28.40;17.58;;;4.30;99.90;;;;;;5086498;28;20024;-76
2024/03/08 02:22:34;;;;;;;26.50;17.48;;;4.30;99.90;;;;;;5068003;28;20385;-76
2024/03/08 02:25:02;;;;;;;23.02;15.43;;;4.30;99.90;;;;;;5086875;28;20020;-74
2024/03/08 02:27:29;;;;;;;24.88;17.52;;;4.20;99.90;;;;;;5086087;28;20032;-75
2024/03/08 02:29:56;;;;;;;30.02;17.08;;;4.20;99.90;;;;;;5086333;28;20031;-74
2024/03/08 02:32:25;;;;;;;23.38;16.63;;;4.20;99.90;;;;;;5093956;28;20088;-75
2024/03/08 02:34:51;;;;;;;22.98;15.40;;;4.20;99.90;;;;;;5086966;28;20040;-75
2024/03/08 02:37:17;;;;;;;25.20;17.30;;;4.20;99.90;;;;;;5086270;28;20413;-74
2024/03/08 02:39:43;;;;;;;26.60;17.05;;;4.20;99.90;;;;;;5067457;28;20016;-74
2024/03/08 02:42:08;;;;;;;26.25;18.30;;;4.10;99.90;;;;;;5086045;28;20566;-74
2024/03/08 02:44:34;;;;;;;25.50;18.05;;;4.10;99.90;;;;;;5067670;28;20020;-75
2024/03/08 02:47:00;;;;;;;26.90;16.48;;;4.10;99.90;;;;;;5085948;28;20024;-75
2024/03/08 02:49:26;;;;;;;24.48;16.00;;;4.10;99.90;;;;;;5086755;28;20028;-74
2024/03/08 02:51:53;;;;;;;25.15;16.88;;;4.00;99.90;;;;;;5090258;28;20024;-75
2024/03/08 02:54:19;;;;;;;26.50;17.52;;;4.00;99.90;;;;;;5089407;28;20484;-75
2024/03/08 02:56:50;;;;;;;25.02;17.48;;;4.00;99.90;;;;;;5090029;28;20027;-75
2024/03/08 02:59:17;;;;;;;27.10;16.83;;;4.00;99.90;;;;;;5075607;28;20468;-75
2024/03/08 03:01:43;;;;;;;30.90;18.38;;;4.00;99.90;;;;;;5090046;28;20016;-74
2024/03/08 03:04:08;;;;;;;25.38;17.45;;;4.00;99.90;;;;;;5089427;28;20079;-75
2024/03/08 03:06:34;;;;;;;27.67;17.95;;;4.00;99.90;;;;;;5090628;28;20527;-74
2024/03/08 03:09:00;;;;;;;24.42;17.15;;;4.00;99.90;;;;;;5089437;28;20035;-75
2024/03/08 03:11:26;;;;;;;25.33;18.20;;;3.90;99.90;;;;;;5090121;28;20028;-75
2024/03/08 03:13:52;;;;;;;24.65;16.77;;;3.90;99.90;;;;;;5089323;28;20027;-75
2024/03/08 03:16:21;;;;;;;23.67;15.85;;;3.90;99.90;;;;;;5071712;28;20498;-75
2024/03/08 03:18:47;;;;;;;27.50;17.92;;;3.90;99.90;;;;;;5089110;28;20039;-75
2024/03/08 03:21:17;;;;;;;30.77;20.05;;;3.90;99.90;;;;;;5089934;28;20095;-75
2024/03/08 03:23:42;;;;;;;25.95;17.98;;;3.80;99.90;;;;;;5089664;28;20024;-75
2024/03/08 03:26:12;;;;;;;25.45;17.45;;;3.80;99.90;;;;;;5091200;28;20036;-74
2024/03/08 03:28:39;;;;;;;26.50;18.38;;;3.80;99.90;;;;;;5074925;28;20047;-71
2024/03/08 03:31:07;;;;;;;23.73;16.58;;;3.80;99.90;;;;;;5091923;28;20028;-74
2024/03/08 03:33:36;;;;;;;27.88;18.70;;;3.80;99.90;;;;;;5089150;28;20043;-75
2024/03/08 03:36:05;;;;;;;26.83;16.92;;;3.70;99.90;;;;;;5089485;28;20085;-75
2024/03/08 03:38:30;;;;;;;28.08;17.80;;;3.80;99.90;;;;;;5090027;28;20012;-74
2024/03/08 03:40:57;;;;;;;28.35;18.23;;;3.70;99.90;;;;;;5089807;28;20074;-75
2024/03/08 03:43:23;;;;;;;28.55;18.75;;;3.70;99.90;;;;;;5089299;28;20039;-75
2024/03/08 03:45:49;;;;;;;24.33;17.15;;;3.70;99.90;;;;;;5071084;28;20012;-75
2024/03/08 03:48:15;;;;;;;32.30;18.20;;;3.70;99.90;;;;;;5089458;28;20476;-75
2024/03/08 03:50:40;;;;;;;27.80;17.45;;;3.70;99.90;;;;;;5089046;28;20068;-75
2024/03/08 03:53:09;;;;;;;26.38;18.55;;;3.60;99.90;;;;;;5088903;28;20024;-76
2024/03/08 03:55:38;;;;;;;27.92;18.33;;;3.70;99.90;;;;;;5088899;28;20031;-74
2024/03/08 03:58:04;;;;;;;26.85;18.08;;;3.60;99.90;;;;;;5070418;28;20066;-75
2024/03/08 04:00:29;;;;;;;26.15;18.58;;;3.60;99.90;;;;;;5089441;28;20016;-75
2024/03/08 04:02:58;;;;;;;29.42;19.65;;;3.60;99.90;;;;;;5088962;28;20868;-74
2024/03/08 04:05:24;;;;;;;27.80;18.60;;;3.60;99.90;;;;;;5089296;28;20028;-76
2024/03/08 04:07:50;;;;;;;26.23;17.35;;;3.50;99.90;;;;;;5088878;28;20491;-75
2024/03/08 04:10:15;;;;;;;24.92;17.48;;;3.50;99.90;;;;;;5089641;28;20028;-75
2024/03/08 04:12:41;;;;;;;26.65;17.08;;;3.50;99.90;;;;;;5088651;28;20020;-75
2024/03/08 04:15:07;;;;;;;26.67;18.88;;;3.50;99.90;;;;;;5089024;28;20028;-75
2024/03/08 04:17:37;;;;;;;27.65;18.38;;;3.50;99.90;;;;;;5089112;28;20024;-75
2024/03/08 04:20:07;;;;;;;28.40;18.60;;;3.40;99.90;;;;;;5088545;28;20059;-74
2024/03/08 04:22:35;;;;;;;;;;;3.40;99.90;;;;;;5071061;28;20028;-77
2024/03/08 04:25:02;;;;;;;25.25;17.92;;;3.40;99.90;;;;;;5088473;28;19912;-75
2024/03/08 04:27:28;;;;;;;30.55;18.23;;;3.40;99.90;;;;;;5070956;28;20028;-75
2024/03/08 04:29:53;;;;;;;26.80;18.67;;;3.40;99.90;;;;;;5064026;28;20039;-75
2024/03/08 04:32:19;;;;;;;26.17;17.80;;;3.40;99.90;;;;;;5080949;28;20504;-75
2024/03/08 04:34:44;;;;;;;25.58;17.98;;;3.30;99.90;;;;;;5088246;28;20024;-75
2024/03/08 04:37:13;;;;;;;28.15;19.23;;;3.30;99.90;;;;;;5089160;28;20048;-75
2024/03/08 04:39:38;;;;;;;30.20;19.00;;;3.30;99.90;;;;;;5088484;28;20107;-76
2024/03/08 04:42:09;;;;;;;27.27;18.75;;;3.30;99.90;;;;;;5088390;28;20145;-75
2024/03/08 04:44:36;;;;;;;28.60;18.48;;;3.30;99.90;;;;;;5088530;28;20545;-74
2024/03/08 04:47:02;;;;;;;27.42;19.02;;;3.30;99.90;;;;;;5089338;28;20366;-75
2024/03/08 04:49:29;;;;;;;28.80;17.88;;;3.30;99.90;;;;;;5088252;28;20047;-74
2024/03/08 04:51:55;;;;;;;25.65;17.83;;;3.30;99.90;;;;;;5088224;28;20417;-75
2024/03/08 04:54:21;;;;;;;33.63;19.13;;;3.20;99.90;;;;;;5087889;28;20077;-75
2024/03/08 04:56:47;;;;;;;28.63;18.80;;;3.20;99.90;;;;;;5087923;28;20024;-75
2024/03/08 04:59:13;;;;;;;29.40;19.35;;;3.20;99.90;;;;;;5069055;28;20481;-75
2024/03/08 05:01:39;;;;;;;26.60;17.80;;;3.20;99.90;;;;;;5069654;28;20022;-76
2024/03/08 05:04:05;;;;;;;28.52;19.23;;;3.20;99.90;;;;;;5087848;28;20107;-75
2024/03/08 05:06:31;;;;;;;27.52;17.80;;;3.20;99.90;;;;;;5087798;28;20392;-76
2024/03/08 05:08:56;;;;;;;28.48;19.30;;;3.20;99.90;;;;;;5087141;28;20032;-75
2024/03/08 05:11:22;;;;;;;27.67;19.48;;;3.20;99.90;;;;;;5087731;28;20027;-75
2024/03/08 05:13:48;;;;;;;31.55;19.35;;;3.10;99.90;;;;;;5086918;28;20567;-75
2024/03/08 05:16:15;;;;;;;28.05;19.20;;;3.10;99.90;;;;;;5087963;28;20026;-75
2024/03/08 05:18:42;;;;;;;28.83;18.70;;;3.10;99.90;;;;;;5087227;28;20020;-75
2024/03/08 05:21:09;;;;;;;26.90;17.85;;;3.10;99.90;;;;;;5087893;28;20020;-75
2024/03/08 05:23:35;;;;;;;28.63;18.80;;;3.10;99.90;;;;;;5069310;28;20024;-75
2024/03/08 05:26:01;;;;;;;26.13;17.27;;;3.10;99.90;;;;;;5087891;28;20024;-75
2024/03/08 05:28:26;;;;;;;27.58;18.10;;;3.10;99.90;;;;;;5069005;28;20495;-74
2024/03/08 05:30:52;;;;;;;30.05;19.27;;;3.10;99.90;;;;;;5087303;28;20028;-75
2024/03/08 05:33:19;;;;;;;27.95;19.25;;;3.10;99.90;;;;;;5087133;28;20031;-75
2024/03/08 05:35:44;;;;;;;32.20;20.55;;;3.10;99.90;;;;;;5087170;28;20105;-76
2024/03/08 05:38:12;;;;;;;28.55;18.90;;;3.00;99.90;;;;;;5087569;28;20058;-76
2024/03/08 05:40:38;;;;;;;30.73;19.75;;;3.00;99.90;;;;;;5070340;28;20107;-75
2024/03/08 05:43:05;;;;;;;27.70;18.85;;;3.00;99.90;;;;;;5087119;28;20107;-76
2024/03/08 05:45:31;;;;;;;27.88;18.92;;;3.00;99.90;;;;;;5086831;28;20020;-75
2024/03/08 05:47:56;;;;;;;30.95;19.98;;;3.00;99.90;;;;;;5086899;28;20028;-75
2024/03/08 05:50:22;;;;;;;26.70;17.90;;;3.00;99.90;;;;;;5086233;28;20048;-75
2024/03/08 05:52:47;;;;;;;28.17;17.02;;;3.00;99.90;;;;;;5086376;28;20549;-75
2024/03/08 05:55:14;;;;;;;25.15;17.30;;;3.00;99.90;;;;;;5086370;28;20039;-75
2024/03/08 05:57:42;;;;;;;28.08;17.98;;;3.00;99.90;;;;;;5086850;28;20016;-75
2024/03/08 06:00:08;;;;;;;27.38;18.95;;;3.00;99.90;;;;;;5086531;28;20036;-75
2024/03/08 06:02:34;;;;;;;29.73;20.40;;;2.90;99.90;;;;;;5087058;28;20027;-75
2024/03/08 06:05:02;;;;;;;29.33;19.75;;;3.00;99.90;;;;;;5086314;28;20031;-75
2024/03/08 06:07:27;;;;;;;29.77;19.67;;;2.90;99.90;;;;;;5086983;28;20116;-75
2024/03/08 06:09:53;;;;;;;26.95;17.75;;;3.00;99.90;;;;;;5085849;28;20089;-75
2024/03/08 06:12:19;;;;;;;30.52;19.98;;;2.90;99.90;;;;;;5086055;28;20021;-75
2024/03/08 06:14:45;;;;;;;28.83;19.25;;;2.90;99.90;;;;;;5086053;28;20039;-75
2024/03/08 06:17:11;;;;;;;30.45;18.88;;;3.00;99.90;;;;;;5086844;28;20031;-75
2024/03/08 06:19:37;;;;;;;29.33;20.20;;;2.90;99.90;;;;;;5085641;28;20404;-75
2024/03/08 06:22:05;;;;;;;29.38;19.05;;;2.90;99.90;;;;;;5068062;28;20028;-75
2024/03/08 06:24:32;;;;;;;30.00;19.73;;;2.90;99.90;;;;;;5084883;28;20058;-76
2024/03/08 06:26:57;;;;;;;28.65;18.77;;;2.90;99.90;;;;;;5067740;28;20024;-76
2024/03/08 06:29:23;;;;;;;30.52;19.52;;;2.90;99.90;;;;;;5086065;28;20028;-75
2024/03/08 06:31:49;;;;;;;31.60;19.42;;;2.90;99.90;;;;;;5086520;28;20028;-76
2024/03/08 06:34:15;;;;;;;31.15;20.25;;;2.90;99.90;;;;;;5079512;28;20020;-75
2024/03/08 06:36:41;;;;;;;30.40;19.40;;;2.90;99.90;;;;;;5072382;28;20020;-75
2024/03/08 06:39:09;;;;;;;33.33;20.40;;;2.90;99.90;;;;;;5086145;28;20012;-76
2024/03/08 06:41:36;;;;;;;26.83;18.02;;;2.90;99.90;;;;;;5068193;28;20009;-75
2024/03/08 06:44:02;;;;;;;31.80;20.42;;;2.90;99.90;;;;;;5086119;28;20499;-76
2024/03/08 06:46:28;;;;;;;30.23;19.25;;;2.90;99.90;;;;;;5068054;28;20032;-76
2024/03/08 06:48:53;;;;;;;29.77;19.25;;;2.90;99.90;;;;;;5085498;28;20024;-76
2024/03/08 06:51:19;;;;;;;28.20;19.05;;;3.00;99.90;;;;;;5064437;28;20131;-76
2024/03/08 06:53:45;;;;;;;33.38;19.60;;;3.00;99.90;;;;;;5065529;28;20039;-75
2024/03/08 06:56:11;;;;;;;29.23;18.58;;;2.90;99.90;;;;;;5065483;28;20032;-75
2024/03/08 06:58:37;;;;;;;27.27;17.92;;;3.00;99.90;;;;;;5065358;28;20020;-75
2024/03/08 07:01:07;;;;;;;31.20;20.40;;;2.90;99.90;;;;;;5064001;28;20028;-75
2024/03/08 07:03:33;;;;;;;29.60;18.73;;;3.00;99.90;;;;;;5065544;28;20030;-73
2024/03/08 07:05:59;;;;;;;28.30;18.05;;;3.00;99.90;;;;;;5053834;28;20058;-75
2024/03/08 07:08:26;;;;;;;29.05;19.30;;;3.00;99.90;;;;;;5048029;28;20048;-75
2024/03/08 07:10:53;;;;;;;32.00;21.27;;;3.00;99.90;;;;;;5051412;28;20028;-75
2024/03/08 07:13:18;;;;;;;30.50;19.98;;;3.00;99.90;;;;;;5054258;28;20059;-75
2024/03/08 07:15:45;;;;;;;29.50;21.23;;;3.00;99.90;;;;;;5060508;28;20032;-75
2024/03/08 07:18:14;;;;;;;29.63;18.50;;;3.10;99.90;;;;;;5052254;28;20032;-75
2024/03/08 07:20:43;;;;;;;31.60;20.35;;;3.10;99.90;;;;;;5050730;28;20025;-76
2024/03/08 07:23:08;;;;;;;33.20;19.90;;;3.10;99.90;;;;;;5056122;28;20154;-75
2024/03/08 07:25:35;;;;;;;30.55;20.40;;;3.10;99.90;;;;;;5055882;28;20449;-75
2024/03/08 07:28:01;;;;;;;30.08;20.75;;;3.20;99.90;;;;;;5049533;28;20029;-76
2024/03/08 07:33:11;;;;;;;31.13;20.60;;;3.20;99.90;;;;;;5057187;28;20123;-75
2024/03/08 07:35:40;;;;;;;30.40;19.35;;;3.20;99.90;;;;;;5058875;28;20028;-75
2024/03/08 07:38:09;;;;;;;34.05;20.08;;;3.20;99.90;;;;;;5061970;28;20012;-76
2024/03/08 07:40:39;;;;;;;31.20;19.45;;;3.30;99.90;;;;;;5058799;28;20040;-74
2024/03/08 07:43:04;;;;;;;29.85;20.52;;;3.30;99.90;;;;;;5054887;28;20041;-75
2024/03/08 07:45:30;;;;;;;30.73;20.52;;;3.30;99.90;;;;;;5052023;28;20489;-75
2024/03/08 07:47:56;;;;;;;30.25;20.30;;;3.40;99.90;;;;;;5049146;28;20494;-76
2024/03/08 07:50:22;;;;;;;30.40;20.50;;;3.50;99.90;;;;;;5071934;28;20048;-75
2024/03/08 07:52:48;;;;;;;32.35;21.33;;;3.50;99.90;;;;;;5051218;28;20040;-75
2024/03/08 07:55:14;;;;;;;31.05;19.90;;;3.50;99.90;;;;;;5055569;28;20041;-70
2024/03/08 07:57:40;;;;;;;30.60;20.48;;;3.60;99.90;;;;;;5075073;28;20012;-74
2024/03/08 08:00:10;;;;;;;30.77;20.58;;;3.70;99.90;;;;;;5070917;28;20093;-75
2024/03/08 08:02:36;;;;;;;31.30;19.10;;;3.70;99.90;;;;;;5087188;28;20425;-78
2024/03/08 08:05:03;;;;;;;28.25;20.70;;;3.70;99.90;;;;;;5065338;28;20096;-75
2024/03/08 08:07:29;;;;;;;30.83;20.80;;;3.80;99.90;;;;;;5089017;28;20047;-75
2024/03/08 08:09:54;;;;;;;30.65;20.42;;;3.90;99.90;;;;;;5088467;28;20024;-75
2024/03/08 08:12:20;;;;;;;34.55;21.88;;;4.00;99.90;;;;;;5088879;28;20039;-75
2024/03/08 08:14:46;;;;;;;33.15;21.90;;;4.00;99.90;;;;;;5088432;28;20106;-75
2024/03/08 08:17:12;;;;;;;33.65;20.55;;;4.10;99.90;;;;;;5080624;28;20143;-75
2024/03/08 08:19:40;;;;;;;31.48;20.33;;;4.10;99.90;;;;;;5087865;28;20012;-74
2024/03/08 08:22:08;;;;;;;31.38;21.70;;;4.20;99.90;;;;;;5088734;28;20024;-75
2024/03/08 08:24:34;;;;;;;31.55;20.98;;;4.30;99.90;;;;;;5070124;28;20384;-74
2024/03/08 08:27:00;;;;;;;32.58;21.48;;;4.30;99.90;;;;;;5087793;28;20138;-75
2024/03/08 08:29:26;;;;;;;32.25;21.25;;;4.40;99.90;;;;;;5073259;28;20421;-75
2024/03/08 08:31:52;;;;;;;27.75;19.73;;;4.50;99.90;;;;;;5069361;28;20017;-75
2024/03/08 08:34:19;;;;;;;33.95;21.33;;;4.50;99.90;;;;;;5076476;28;20516;-75
2024/03/08 08:36:45;;;;;;;30.77;21.13;;;4.60;99.90;;;;;;5056286;28;20432;-75
2024/03/08 08:39:13;;;;;;;33.25;22.05;;;4.70;99.90;;;;;;5070129;28;20023;-75
2024/03/08 08:41:41;;;;;;;33.40;20.90;;;4.70;99.90;;;;;;5086799;28;20108;-75
2024/03/08 08:44:09;;;;;;;29.08;19.38;;;4.80;99.90;;;;;;5069855;28;20384;-73
2024/03/08 08:46:36;;;;;;;30.90;20.25;;;4.90;99.90;;;;;;5077214;28;20043;-74
2024/03/08 08:49:02;;;;;;;43.40;21.90;;;4.90;99.90;;;;;;5084142;28;20023;-74
2024/03/08 08:51:27;;;;;;;28.50;20.23;;;5.00;99.90;;;;;;5073798;28;20131;-75
2024/03/08 08:53:53;;;;;;;27.65;20.50;;;5.10;99.90;;;;;;5053924;28;20024;-74
2024/03/08 08:56:19;;;;;;;26.00;19.35;;;5.20;99.90;;;;;;5087313;28;20108;-74
2024/03/08 08:58:45;;;;;;;29.60;20.02;;;5.30;99.90;;;;;;5083116;28;20043;-74
2024/03/08 09:01:11;;;;;;;29.75;19.83;;;5.30;99.90;;;;;;5084864;28;20495;-74
2024/03/08 09:03:37;;;;;;;31.40;21.15;;;5.40;99.90;;;;;;5059566;28;20024;-74
2024/03/08 09:06:09;;;;;;;30.15;20.27;;;5.50;99.90;;;;;;5076316;28;20020;-74
2024/03/08 09:08:35;;;;;;;28.60;19.40;;;5.60;99.90;;;;;;5062836;28;20024;-74
2024/03/08 09:11:01;;;;;;;29.92;19.63;;;5.70;99.90;;;;;;5084131;28;20022;-74
2024/03/08 09:13:27;;;;;;;30.23;20.65;;;5.80;99.90;;;;;;5067133;28;20024;-74
2024/03/08 09:15:53;;;;;;;29.98;20.52;;;5.90;99.90;;;;;;5088651;28;20031;-72
2024/03/08 09:18:19;;;;;;;28.48;19.17;;;6.00;99.90;;;;;;5075406;28;20016;-75
2024/03/08 09:20:45;;;;;;;26.02;17.48;;;6.00;99.90;;;;;;5071388;28;20029;-74
2024/03/08 09:23:10;;;;;;;27.00;18.23;;;6.20;99.90;;;;;;5070794;28;20548;-74
2024/03/08 09:25:36;;;;;;;29.42;19.75;;;6.30;99.90;;;;;;5072282;28;20032;-74
2024/03/08 09:28:03;;;;;;;28.67;19.90;;;6.40;99.90;;;;;;5072260;28;20044;-74
2024/03/08 09:30:29;;;;;;;29.60;19.52;;;6.50;99.90;;;;;;5085359;28;20074;-74
2024/03/08 09:32:54;;;;;;;29.80;20.27;;;6.60;99.90;;;;;;5081277;28;20640;-74
2024/03/08 09:35:20;;;;;;;28.67;19.58;;;6.70;99.90;;;;;;5082357;28;20119;-74
2024/03/08 09:37:47;;;;;;;27.38;18.52;;;6.70;99.90;;;;;;5076257;28;20366;-74
2024/03/08 09:40:15;;;;;;;27.80;20.02;;;6.90;99.90;;;;;;5079916;28;20042;-74
2024/03/08 09:42:42;;;;;;;26.42;19.20;;;6.90;99.90;;;;;;5073106;28;20024;-74
2024/03/08 09:45:11;;;;;;;27.17;19.25;;;7.00;99.90;;;;;;5067536;28;20035;-73
2024/03/08 09:47:42;;;;;;;24.92;17.95;;;7.10;99.90;;;;;;5048685;28;20028;-74
2024/03/08 09:50:09;;;;;;;27.97;18.80;;;7.20;99.90;;;;;;5079052;28;20783;-74
2024/03/08 09:52:40;;;;;;;28.63;18.58;;;7.30;99.90;;;;;;5084270;28;20481;-75
2024/03/08 09:55:07;;;;;;;26.48;18.33;;;7.40;99.90;;;;;;5061180;28;20036;-75
2024/03/08 09:57:33;;;;;;;25.05;18.38;;;7.50;99.90;;;;;;5074424;28;20015;-74
2024/03/08 09:59:59;;;;;;;24.77;18.40;;;7.60;99.90;;;;;;5072029;28;20033;-75
2024/03/08 10:02:25;;;;;;;27.25;18.75;;;7.70;99.90;;;;;;5052764;28;20535;-74
2024/03/08 10:04:53;;;;;;;26.70;17.98;;;7.90;99.90;;;;;;5075674;28;20069;-75
2024/03/08 10:07:19;;;;;;;31.38;18.75;;;7.90;99.90;;;;;;5083578;28;20095;-75
2024/03/08 10:09:50;;;;;;;25.85;17.25;;;8.10;99.90;;;;;;5078691;28;20115;-75
2024/03/08 10:12:16;;;;;;;;;;;8.10;99.90;;;;;;5054143;28;20138;-75
2024/03/08 10:14:42;;;;;;;24.58;17.45;;;8.20;99.90;;;;;;5070156;28;19916;-75
2024/03/08 10:17:07;;;;;;;25.25;17.35;;;8.30;99.90;;;;;;5049238;28;20033;-76
2024/03/08 10:19:34;;;;;;;24.23;17.27;;;8.40;99.90;;;;;;5076440;28;20035;-76
2024/03/08 10:21:59;;;;;;;26.45;17.88;;;8.50;99.90;;;;;;5071644;28;20023;-74
2024/03/08 10:24:25;;;;;;;25.55;17.75;;;8.60;99.90;;;;;;5073374;28;20248;-73
2024/03/08 10:26:53;;;;;;;26.45;17.65;;;8.70;99.90;;;;;;5068877;28;20374;-74
2024/03/08 10:29:19;;;;;;;24.67;18.13;;;8.80;99.90;;;;;;5069095;28;20033;-74
2024/03/08 10:31:45;;;;;;;26.70;17.02;;;8.90;99.90;;;;;;5078959;28;20581;-74
2024/03/08 10:34:11;;;;;;;24.85;16.75;;;9.10;99.90;;;;;;5078050;28;20443;-74
2024/03/08 10:36:38;;;;;;;25.60;18.50;;;9.20;99.90;;;;;;5085761;28;20016;-74
2024/03/08 10:39:10;;;;;;;35.28;22.27;;;9.30;99.90;;;;;;5085072;28;20517;-73
2024/03/08 10:41:39;;;;;;;27.42;19.45;;;9.40;99.90;;;;;;5086254;28;20026;-74
2024/03/08 10:44:29;;;;;;;69.57;40.30;;;9.50;99.90;;;;;;5086109;28;20484;-74
2024/03/08 10:47:19;;;;;;;42.80;28.55;;;9.70;99.90;;;;;;5083469;28;20462;-74
2024/03/08 10:49:55;;;;;;;36.83;24.00;;;9.80;99.90;;;;;;5079198;28;20497;-74
2024/03/08 10:52:22;;;;;;;25.50;18.63;;;10.00;99.90;;;;;;5079442;28;20052;-73
2024/03/08 10:54:51;;;;;;;39.55;25.17;;;10.10;99.90;;;;;;5074353;28;20037;-74
2024/03/08 10:57:19;;;;;;;24.73;17.77;;;10.20;99.90;;;;;;5075506;28;20521;-74
2024/03/08 10:59:49;;;;;;;22.02;15.55;;;10.30;99.90;;;;;;5070742;28;20044;-74
2024/03/08 11:02:16;;;;;;;22.63;16.38;;;10.40;99.90;;;;;;5072345;28;20020;-74
2024/03/08 11:04:50;;;;;;;147.55;71.53;;;10.50;99.90;;;;;;5066886;28;20021;-74
2024/03/08 11:07:19;;;;;;;104.60;44.00;;;10.60;99.90;;;;;;5052177;28;20039;-74
2024/03/08 11:09:47;;;;;;;187.52;68.28;;;10.70;99.90;;;;;;5085486;28;20496;-74
2024/03/08 11:12:29;;;;;;;46.03;24.33;;;10.80;99.90;;;;;;5080392;28;20028;-74
2024/03/08 11:14:59;;;;;;;91.07;33.92;;;11.00;99.90;;;;;;5080990;28;20480;-74
2024/03/08 11:17:30;;;;;;;33.85;18.90;;;11.00;99.90;;;;;;5077942;28;20663;-74
2024/03/08 11:20:00;;;;;;;72.30;28.60;;;11.10;99.90;;;;;;5076985;28;20025;-74
2024/03/08 11:22:32;;;;;;;50.75;21.88;;;11.10;99.90;;;;;;5074296;28;20504;-74
2024/03/08 11:25:09;;;;;;;36.75;20.52;;;11.20;99.90;;;;;;5054299;28;20029;-74
2024/03/08 11:27:39;;;;;;;76.97;34.72;;;11.30;99.90;;;;;;5070741;28;20110;-73
2024/03/08 11:30:11;;;;;;;30.75;19.95;;;11.40;99.90;;;;;;5050714;28;20023;-74
2024/03/08 11:32:37;;;;;;;21.08;15.27;;;11.50;99.90;;;;;;5079151;28;20063;-74
2024/03/08 11:35:18;;;;;;;23.88;16.95;;;11.60;99.90;;;;;;5076248;28;20063;-73
2024/03/08 11:37:44;;;;;;;276.73;77.28;;;11.60;99.90;;;;;;5063771;28;20039;-74
2024/03/08 11:40:16;;;;;;;64.03;24.83;;;11.70;99.90;;;;;;5066371;28;20008;-74
2024/03/08 11:42:48;;;;;;;93.60;32.42;;;11.80;99.90;;;;;;5077041;28;20024;-75
2024/03/08 11:45:17;;;;;;;52.30;23.15;;;11.90;99.90;;;;;;5073802;28;20460;-75
2024/03/08 11:47:46;;;;;;;35.35;19.20;;;12.00;99.90;;;;;;5079519;28;20485;-74
2024/03/08 11:50:12;;;;;;;89.40;32.47;;;12.00;99.90;;;;;;5083956;28;20048;-74
2024/03/08 11:52:38;;;;;;;120.20;40.47;;;12.10;99.90;;;;;;5070695;28;20063;-74
2024/03/08 11:55:05;;;;;;;37.45;17.73;;;12.20;99.90;;;;;;5079738;28;20355;-75
2024/03/08 11:57:31;;;;;;;24.60;15.88;;;12.20;99.90;;;;;;5082962;28;20065;-75
2024/03/08 11:59:58;;;;;;;20.27;14.45;;;12.20;99.90;;;;;;5077919;28;20044;-75
2024/03/08 12:02:25;;;;;;;22.00;14.57;;;12.30;99.90;;;;;;5069683;28;20045;-74
2024/03/08 12:05:03;;;;;;;22.15;14.15;;;12.40;99.90;;;;;;5077827;28;20028;-74
2024/03/08 12:07:32;;;;;;;23.85;16.75;;;12.50;99.90;;;;;;5055049;28;20032;-74
2024/03/08 12:10:21;;;;;;;20.33;14.43;;;12.50;99.90;;;;;;5063021;28;20524;-74
2024/03/08 12:12:55;;;;;;;19.35;13.98;;;12.50;99.90;;;;;;5057229;28;20366;-73
2024/03/08 12:15:23;;;;;;;18.08;13.20;;;12.50;99.90;;;;;;5067490;28;20147;-74
2024/03/08 12:17:50;;;;;;;45.08;22.42;;;12.50;99.90;;;;;;5085975;28;20020;-74
2024/03/08 12:20:17;;;;;;;31.95;19.00;;;12.50;99.70;;;;;;5086054;28;20505;-74
2024/03/08 12:22:44;;;;;;;39.35;21.85;;;12.50;99.20;;;;;;5085096;28;20502;-74
2024/03/08 12:25:11;;;;;;;27.92;16.70;;;12.50;99.20;;;;;;5083031;28;20028;-75
2024/03/08 12:27:39;;;;;;;26.15;16.02;;;12.50;99.40;;;;;;5060591;28;20024;-74
2024/03/08 12:30:26;;;;;;;19.58;13.93;;;12.60;99.20;;;;;;5088539;28;20635;-73
2024/03/08 12:33:01;;;;;;;37.13;20.27;;;12.70;98.70;;;;;;5075740;28;20068;-73
2024/03/08 12:35:29;;;;;;;47.60;23.52;;;12.70;98.70;;;;;;5074345;28;20524;-74
2024/03/08 12:37:57;;;;;;;33.53;19.45;;;12.70;98.30;;;;;;5070264;28;20024;-74